Aeroporto :
LOGIN :

Iscrizione | Disclaimer

   EN    FR    IT 

 










Sommario :    VFR   VFR Marginale   IFR   IFR Intensivo   IFR Molto Intensivo
Visibilità : 
Base nubi : 
>= 8 km
>= 3000ft
5 / 8 km
1000 / 3000 ft
1500m / 5 km
500 / 1000 ft
800 / 1500m
200 / 500 ft
< 800m
< 200 ft
Simboli :   Temporali  Nebbia  Neve Forte  Precipitazioni Forti  Vento > 20 kt
SIGMETs :   Varie  Temporali  Ghiacco  Turbolenza  Onda orograficha  Ceneri Vulcaniche






- Altitudine del aeroporto : 289 ft
- Codice IATA : ZAD


LDZD - Zadar

ULTIMO METAR :
  • 281700Z 16011KT 9999 SCT040 BKN075 12/09 Q1007 NOSIG

METARs OBSOLETI :
  • 281630Z 15013KT 9999 SCT040 BKN075 12/09 Q1007 NOSIG
  • 281600Z 16015KT 9999 SCT040 BKN075 13/09 Q1008 NOSIG
  • 281530Z 15009KT 9999 SCT040 BKN075 12/09 Q1008 NOSIG
  • 281500Z 14009KT 110V170 9999 FEW033 BKN075 12/10 Q1008 NOSIG
  • 281430Z 16011KT 9999 FEW033 BKN075 13/10 Q1009 NOSIG
  • 281400Z 17010KT 140V200 9999 SCT033 BKN075 13/10 Q1009 NOSIG

TAF TAF LDZD
Valido dal 28 a 12 ore il 29 a 12 ore UTC


281125Z 2812/2912 16015KT 9999 FEW020 BKN050 TX13/2813Z TN03/2905Z
PROB40
TEMPO 2812/2818 16015G25KT
PROB30
TEMPO 2818/2823 24015G25KT -TSRA FEW020CB BKN040
BECMG 2821/2823 30010KT
PROB30
TEMPO 2904/2907 VRB02KT 1500 BCFG



MetMap, La meteo Aeronautica in un colpo d'occhio ! - Copyright ORBIFLY Dicembre 2007 - Disclaimer

ORBIFLY MET'MAP TEAM :

Programmazione e sviluppo : Alexandra Zaïnal
Concezione : Baudouin d'Aumeries
Aiuto per la programmazione : Marc-Olivier Méhu
Supporto tecnico e logistico : Manuel Goepfert
Aiuto per la traduzione : Arnaldo La Scala

Contatto : metmap@orbifly.com




FONTI E CREDITI :

   NOAA